sensor_id;sensor_type;location;lat;lon;timestamp;P1;durP1;ratioP1;P2;durP2;ratioP2
37451;SDS011;23314;51.114;6.900;2023-02-19T00:02:04;8.13;;;7.40;;
37451;SDS011;23314;51.114;6.900;2023-02-19T00:04:30;8.83;;;8.03;;
37451;SDS011;23314;51.114;6.900;2023-02-19T00:06:55;8.57;;;7.77;;
37451;SDS011;23314;51.114;6.900;2023-02-19T00:09:20;8.00;;;7.40;;
37451;SDS011;23314;51.114;6.900;2023-02-19T00:11:46;7.70;;;7.00;;
37451;SDS011;23314;51.114;6.900;2023-02-19T00:14:15;8.53;;;7.83;;
37451;SDS011;23314;51.114;6.900;2023-02-19T00:16:42;7.60;;;6.90;;
37451;SDS011;23314;51.114;6.900;2023-02-19T00:19:11;9.60;;;7.37;;
37451;SDS011;23314;51.114;6.900;2023-02-19T00:21:37;8.03;;;7.27;;
37451;SDS011;23314;51.114;6.900;2023-02-19T00:24:03;7.17;;;6.57;;
37451;SDS011;23314;51.114;6.900;2023-02-19T00:26:30;6.93;;;6.23;;
37451;SDS011;23314;51.114;6.900;2023-02-19T00:28:55;7.37;;;6.47;;
37451;SDS011;23314;51.114;6.900;2023-02-19T00:31:22;7.00;;;6.40;;
37451;SDS011;23314;51.114;6.900;2023-02-19T00:33:49;6.50;;;5.90;;
37451;SDS011;23314;51.114;6.900;2023-02-19T00:36:16;5.20;;;4.90;;
37451;SDS011;23314;51.114;6.900;2023-02-19T00:38:42;5.90;;;5.40;;
37451;SDS011;23314;51.114;6.900;2023-02-19T00:41:08;5.87;;;5.40;;
37451;SDS011;23314;51.114;6.900;2023-02-19T00:43:48;5.60;;;5.10;;
37451;SDS011;23314;51.114;6.900;2023-02-19T00:46:16;6.00;;;5.40;;
37451;SDS011;23314;51.114;6.900;2023-02-19T00:48:44;6.77;;;6.27;;
37451;SDS011;23314;51.114;6.900;2023-02-19T00:51:09;7.67;;;6.30;;
37451;SDS011;23314;51.114;6.900;2023-02-19T00:53:35;8.30;;;6.50;;
37451;SDS011;23314;51.114;6.900;2023-02-19T00:56:01;8.50;;;7.20;;
37451;SDS011;23314;51.114;6.900;2023-02-19T00:58:26;7.23;;;6.53;;
37451;SDS011;23314;51.114;6.900;2023-02-19T01:00:51;8.00;;;7.20;;
37451;SDS011;23314;51.114;6.900;2023-02-19T01:03:17;8.03;;;7.33;;
37451;SDS011;23314;51.114;6.900;2023-02-19T01:05:42;8.27;;;7.43;;
37451;SDS011;23314;51.114;6.900;2023-02-19T01:08:07;8.83;;;7.60;;
37451;SDS011;23314;51.114;6.900;2023-02-19T01:10:33;8.57;;;7.77;;
37451;SDS011;23314;51.114;6.900;2023-02-19T01:12:58;8.30;;;7.60;;
37451;SDS011;23314;51.114;6.900;2023-02-19T01:15:23;8.27;;;7.57;;
37451;SDS011;23314;51.114;6.900;2023-02-19T01:17:49;8.27;;;7.40;;
37451;SDS011;23314;51.114;6.900;2023-02-19T01:20:14;8.07;;;7.37;;
37451;SDS011;23314;51.114;6.900;2023-02-19T01:22:40;7.83;;;7.10;;
37451;SDS011;23314;51.114;6.900;2023-02-19T01:25:05;7.17;;;6.53;;
37451;SDS011;23314;51.114;6.900;2023-02-19T01:27:31;7.70;;;6.30;;
37451;SDS011;23314;51.114;6.900;2023-02-19T01:29:56;6.97;;;6.27;;
37451;SDS011;23314;51.114;6.900;2023-02-19T01:32:21;7.10;;;6.40;;
37451;SDS011;23314;51.114;6.900;2023-02-19T01:34:47;6.87;;;6.17;;
37451;SDS011;23314;51.114;6.900;2023-02-19T01:37:12;7.13;;;6.43;;
37451;SDS011;23314;51.114;6.900;2023-02-19T01:39:38;7.43;;;6.73;;
37451;SDS011;23314;51.114;6.900;2023-02-19T01:42:04;7.90;;;6.97;;
37451;SDS011;23314;51.114;6.900;2023-02-19T01:47:03;9.70;;;7.50;;
37451;SDS011;23314;51.114;6.900;2023-02-19T01:49:30;11.47;;;7.67;;
37451;SDS011;23314;51.114;6.900;2023-02-19T01:52:17;8.87;;;7.13;;
37451;SDS011;23314;51.114;6.900;2023-02-19T01:54:56;11.07;;;7.90;;
37451;SDS011;23314;51.114;6.900;2023-02-19T01:57:27;12.23;;;8.17;;
37451;SDS011;23314;51.114;6.900;2023-02-19T02:00:02;11.60;;;8.00;;
37451;SDS011;23314;51.114;6.900;2023-02-19T02:02:33;10.20;;;8.17;;
37451;SDS011;23314;51.114;6.900;2023-02-19T02:04:59;12.17;;;8.30;;
37451;SDS011;23314;51.114;6.900;2023-02-19T02:07:26;12.27;;;8.50;;
37451;SDS011;23314;51.114;6.900;2023-02-19T02:10:10;10.30;;;9.30;;
37451;SDS011;23314;51.114;6.900;2023-02-19T02:12:49;9.97;;;8.57;;
37451;SDS011;23314;51.114;6.900;2023-02-19T02:15:16;9.43;;;8.40;;
37451;SDS011;23314;51.114;6.900;2023-02-19T02:31:48;11.00;;;9.60;;
37451;SDS011;23314;51.114;6.900;2023-02-19T02:34:22;13.00;;;10.00;;
37451;SDS011;23314;51.114;6.900;2023-02-19T02:36:54;14.23;;;9.90;;
37451;SDS011;23314;51.114;6.900;2023-02-19T02:39:21;12.57;;;10.13;;
37451;SDS011;23314;51.114;6.900;2023-02-19T02:41:55;14.23;;;10.57;;
37451;SDS011;23314;51.114;6.900;2023-02-19T02:44:41;15.13;;;9.90;;
37451;SDS011;23314;51.114;6.900;2023-02-19T02:47:28;13.13;;;10.67;;
37451;SDS011;23314;51.114;6.900;2023-02-19T02:52:44;14.53;;;10.37;;
37451;SDS011;23314;51.114;6.900;2023-02-19T02:55:32;14.97;;;11.37;;
37451;SDS011;23314;51.114;6.900;2023-02-19T02:58:01;13.93;;;12.17;;
37451;SDS011;23314;51.114;6.900;2023-02-19T03:00:27;13.53;;;11.03;;
37451;SDS011;23314;51.114;6.900;2023-02-19T03:03:13;16.83;;;11.50;;
37451;SDS011;23314;51.114;6.900;2023-02-19T03:05:44;14.20;;;11.33;;
37451;SDS011;23314;51.114;6.900;2023-02-19T03:08:20;14.77;;;11.50;;
37451;SDS011;23314;51.114;6.900;2023-02-19T03:10:57;15.50;;;11.77;;
37451;SDS011;23314;51.114;6.900;2023-02-19T03:13:54;16.47;;;12.03;;
37451;SDS011;23314;51.114;6.900;2023-02-19T03:16:44;16.73;;;11.60;;
37451;SDS011;23314;51.114;6.900;2023-02-19T03:19:33;19.83;;;12.37;;
37451;SDS011;23314;51.114;6.900;2023-02-19T03:22:16;20.60;;;14.40;;
37451;SDS011;23314;51.114;6.900;2023-02-19T03:24:48;17.07;;;13.43;;
37451;SDS011;23314;51.114;6.900;2023-02-19T03:27:40;22.13;;;13.63;;
37451;SDS011;23314;51.114;6.900;2023-02-19T03:30:09;19.23;;;13.63;;
37451;SDS011;23314;51.114;6.900;2023-02-19T03:32:43;20.37;;;14.70;;
37451;SDS011;23314;51.114;6.900;2023-02-19T03:35:23;16.83;;;13.83;;
37451;SDS011;23314;51.114;6.900;2023-02-19T03:40:33;16.63;;;13.27;;
37451;SDS011;23314;51.114;6.900;2023-02-19T03:43:17;18.03;;;14.03;;
37451;SDS011;23314;51.114;6.900;2023-02-19T03:48:41;18.43;;;14.67;;
37451;SDS011;23314;51.114;6.900;2023-02-19T03:51:29;19.20;;;13.57;;
37451;SDS011;23314;51.114;6.900;2023-02-19T03:54:20;17.80;;;12.93;;
37451;SDS011;23314;51.114;6.900;2023-02-19T03:56:58;17.77;;;13.50;;
37451;SDS011;23314;51.114;6.900;2023-02-19T04:02:30;20.97;;;15.23;;
37451;SDS011;23314;51.114;6.900;2023-02-19T04:07:36;20.47;;;14.60;;
37451;SDS011;23314;51.114;6.900;2023-02-19T04:10:06;24.33;;;15.70;;
37451;SDS011;23314;51.114;6.900;2023-02-19T04:12:35;17.90;;;14.77;;
37451;SDS011;23314;51.114;6.900;2023-02-19T04:15:08;18.90;;;14.37;;
37451;SDS011;23314;51.114;6.900;2023-02-19T04:17:37;22.50;;;16.03;;
37451;SDS011;23314;51.114;6.900;2023-02-19T04:20:07;20.87;;;16.00;;
37451;SDS011;23314;51.114;6.900;2023-02-19T04:22:35;19.97;;;15.13;;
37451;SDS011;23314;51.114;6.900;2023-02-19T04:25:03;25.43;;;16.23;;
37451;SDS011;23314;51.114;6.900;2023-02-19T04:27:29;20.60;;;14.87;;
37451;SDS011;23314;51.114;6.900;2023-02-19T04:29:55;22.03;;;15.37;;
37451;SDS011;23314;51.114;6.900;2023-02-19T04:32:23;22.20;;;15.70;;
37451;SDS011;23314;51.114;6.900;2023-02-19T04:34:49;25.13;;;14.17;;
37451;SDS011;23314;51.114;6.900;2023-02-19T04:37:15;21.13;;;14.83;;
37451;SDS011;23314;51.114;6.900;2023-02-19T04:39:40;21.97;;;15.33;;
37451;SDS011;23314;51.114;6.900;2023-02-19T04:42:06;21.63;;;15.53;;
37451;SDS011;23314;51.114;6.900;2023-02-19T04:44:32;21.40;;;14.30;;
37451;SDS011;23314;51.114;6.900;2023-02-19T04:46:58;23.97;;;14.93;;
37451;SDS011;23314;51.114;6.900;2023-02-19T04:49:23;27.23;;;16.50;;
37451;SDS011;23314;51.114;6.900;2023-02-19T04:51:49;20.30;;;14.37;;
37451;SDS011;23314;51.114;6.900;2023-02-19T04:54:14;19.97;;;14.57;;
37451;SDS011;23314;51.114;6.900;2023-02-19T04:56:40;19.77;;;14.30;;
37451;SDS011;23314;51.114;6.900;2023-02-19T04:59:05;19.90;;;14.63;;
37451;SDS011;23314;51.114;6.900;2023-02-19T05:01:31;17.70;;;14.47;;
37451;SDS011;23314;51.114;6.900;2023-02-19T05:03:56;20.20;;;14.77;;
37451;SDS011;23314;51.114;6.900;2023-02-19T05:06:22;20.37;;;14.87;;
37451;SDS011;23314;51.114;6.900;2023-02-19T05:08:48;19.20;;;14.93;;
37451;SDS011;23314;51.114;6.900;2023-02-19T05:11:14;21.17;;;16.20;;
37451;SDS011;23314;51.114;6.900;2023-02-19T05:13:39;26.83;;;17.30;;
37451;SDS011;23314;51.114;6.900;2023-02-19T05:16:07;25.97;;;16.33;;
37451;SDS011;23314;51.114;6.900;2023-02-19T05:18:40;23.03;;;17.27;;
37451;SDS011;23314;51.114;6.900;2023-02-19T05:21:07;29.07;;;17.43;;
37451;SDS011;23314;51.114;6.900;2023-02-19T05:23:33;26.33;;;17.30;;
37451;SDS011;23314;51.114;6.900;2023-02-19T05:25:58;23.10;;;17.40;;
37451;SDS011;23314;51.114;6.900;2023-02-19T05:28:29;24.80;;;17.57;;
37451;SDS011;23314;51.114;6.900;2023-02-19T05:30:55;27.43;;;19.07;;
37451;SDS011;23314;51.114;6.900;2023-02-19T05:33:22;26.40;;;18.10;;
37451;SDS011;23314;51.114;6.900;2023-02-19T05:35:51;29.53;;;18.93;;
37451;SDS011;23314;51.114;6.900;2023-02-19T05:38:19;29.13;;;20.97;;
37451;SDS011;23314;51.114;6.900;2023-02-19T05:40:47;28.20;;;20.83;;
37451;SDS011;23314;51.114;6.900;2023-02-19T05:43:14;30.07;;;20.13;;
37451;SDS011;23314;51.114;6.900;2023-02-19T05:45:39;28.27;;;20.23;;
37451;SDS011;23314;51.114;6.900;2023-02-19T05:48:06;28.97;;;21.67;;
37451;SDS011;23314;51.114;6.900;2023-02-19T05:50:33;29.70;;;21.13;;
37451;SDS011;23314;51.114;6.900;2023-02-19T05:53:00;33.27;;;21.90;;
37451;SDS011;23314;51.114;6.900;2023-02-19T05:55:27;35.40;;;21.90;;
37451;SDS011;23314;51.114;6.900;2023-02-19T05:57:53;33.87;;;22.00;;
37451;SDS011;23314;51.114;6.900;2023-02-19T06:00:19;31.23;;;22.57;;
37451;SDS011;23314;51.114;6.900;2023-02-19T06:02:46;33.67;;;20.87;;
37451;SDS011;23314;51.114;6.900;2023-02-19T06:05:12;26.93;;;19.37;;
37451;SDS011;23314;51.114;6.900;2023-02-19T06:07:38;26.67;;;18.63;;
37451;SDS011;23314;51.114;6.900;2023-02-19T06:10:04;32.53;;;19.23;;
37451;SDS011;23314;51.114;6.900;2023-02-19T06:12:31;36.83;;;20.50;;
37451;SDS011;23314;51.114;6.900;2023-02-19T06:14:56;31.43;;;20.13;;
37451;SDS011;23314;51.114;6.900;2023-02-19T06:17:22;37.17;;;21.97;;
37451;SDS011;23314;51.114;6.900;2023-02-19T06:19:47;33.20;;;21.20;;
37451;SDS011;23314;51.114;6.900;2023-02-19T06:22:13;33.23;;;21.97;;
37451;SDS011;23314;51.114;6.900;2023-02-19T06:24:39;33.67;;;20.57;;
37451;SDS011;23314;51.114;6.900;2023-02-19T06:27:05;35.37;;;22.43;;
37451;SDS011;23314;51.114;6.900;2023-02-19T06:29:32;35.40;;;23.73;;
37451;SDS011;23314;51.114;6.900;2023-02-19T06:31:58;33.87;;;21.73;;
37451;SDS011;23314;51.114;6.900;2023-02-19T06:34:23;35.00;;;21.53;;
37451;SDS011;23314;51.114;6.900;2023-02-19T06:36:49;35.57;;;22.50;;
37451;SDS011;23314;51.114;6.900;2023-02-19T06:39:15;34.17;;;22.00;;
37451;SDS011;23314;51.114;6.900;2023-02-19T06:41:40;29.93;;;20.10;;
37451;SDS011;23314;51.114;6.900;2023-02-19T06:44:05;34.00;;;19.90;;
37451;SDS011;23314;51.114;6.900;2023-02-19T06:46:31;28.63;;;19.47;;
37451;SDS011;23314;51.114;6.900;2023-02-19T06:48:56;28.10;;;18.87;;
37451;SDS011;23314;51.114;6.900;2023-02-19T06:51:21;30.03;;;19.60;;
37451;SDS011;23314;51.114;6.900;2023-02-19T06:53:48;32.30;;;19.77;;
37451;SDS011;23314;51.114;6.900;2023-02-19T06:56:24;25.90;;;17.97;;
37451;SDS011;23314;51.114;6.900;2023-02-19T06:58:52;25.40;;;18.43;;
37451;SDS011;23314;51.114;6.900;2023-02-19T07:01:18;29.93;;;17.50;;
37451;SDS011;23314;51.114;6.900;2023-02-19T07:03:44;27.43;;;17.27;;
37451;SDS011;23314;51.114;6.900;2023-02-19T07:06:09;25.17;;;16.60;;
37451;SDS011;23314;51.114;6.900;2023-02-19T07:08:35;27.33;;;17.30;;
37451;SDS011;23314;51.114;6.900;2023-02-19T07:11:00;25.70;;;16.10;;
37451;SDS011;23314;51.114;6.900;2023-02-19T07:13:25;24.80;;;15.27;;
37451;SDS011;23314;51.114;6.900;2023-02-19T07:15:51;24.97;;;15.53;;
37451;SDS011;23314;51.114;6.900;2023-02-19T07:18:22;25.10;;;14.80;;
37451;SDS011;23314;51.114;6.900;2023-02-19T07:20:48;25.80;;;15.47;;
37451;SDS011;23314;51.114;6.900;2023-02-19T07:23:13;24.13;;;14.87;;
37451;SDS011;23314;51.114;6.900;2023-02-19T07:25:38;24.70;;;14.70;;
37451;SDS011;23314;51.114;6.900;2023-02-19T07:28:04;26.10;;;14.50;;
37451;SDS011;23314;51.114;6.900;2023-02-19T07:30:30;23.83;;;13.47;;
37451;SDS011;23314;51.114;6.900;2023-02-19T07:32:55;22.07;;;14.80;;
37451;SDS011;23314;51.114;6.900;2023-02-19T07:35:20;23.47;;;13.40;;
37451;SDS011;23314;51.114;6.900;2023-02-19T07:37:46;26.43;;;14.87;;
37451;SDS011;23314;51.114;6.900;2023-02-19T07:40:11;27.00;;;14.73;;
37451;SDS011;23314;51.114;6.900;2023-02-19T07:42:36;21.97;;;12.13;;
37451;SDS011;23314;51.114;6.900;2023-02-19T07:45:02;21.77;;;12.23;;
37451;SDS011;23314;51.114;6.900;2023-02-19T07:47:27;20.47;;;12.47;;
37451;SDS011;23314;51.114;6.900;2023-02-19T07:49:53;19.77;;;10.80;;
37451;SDS011;23314;51.114;6.900;2023-02-19T07:52:19;19.07;;;11.20;;
37451;SDS011;23314;51.114;6.900;2023-02-19T07:54:44;21.97;;;11.37;;
37451;SDS011;23314;51.114;6.900;2023-02-19T07:57:09;19.13;;;11.27;;
37451;SDS011;23314;51.114;6.900;2023-02-19T07:59:34;22.30;;;11.53;;
37451;SDS011;23314;51.114;6.900;2023-02-19T08:02:00;16.50;;;10.67;;
37451;SDS011;23314;51.114;6.900;2023-02-19T08:04:45;18.80;;;11.13;;
37451;SDS011;23314;51.114;6.900;2023-02-19T08:07:11;18.77;;;10.17;;
37451;SDS011;23314;51.114;6.900;2023-02-19T08:09:37;20.03;;;10.40;;
37451;SDS011;23314;51.114;6.900;2023-02-19T08:12:02;21.57;;;10.37;;
37451;SDS011;23314;51.114;6.900;2023-02-19T08:14:46;22.43;;;10.80;;
37451;SDS011;23314;51.114;6.900;2023-02-19T08:17:11;16.70;;;10.47;;
37451;SDS011;23314;51.114;6.900;2023-02-19T08:19:37;17.90;;;10.47;;
37451;SDS011;23314;51.114;6.900;2023-02-19T08:22:02;25.53;;;11.40;;
37451;SDS011;23314;51.114;6.900;2023-02-19T08:24:27;17.53;;;10.77;;
37451;SDS011;23314;51.114;6.900;2023-02-19T08:26:53;24.33;;;11.43;;
37451;SDS011;23314;51.114;6.900;2023-02-19T08:29:18;25.37;;;11.93;;
37451;SDS011;23314;51.114;6.900;2023-02-19T08:31:44;23.53;;;11.97;;
37451;SDS011;23314;51.114;6.900;2023-02-19T08:34:09;23.70;;;11.27;;
37451;SDS011;23314;51.114;6.900;2023-02-19T08:36:34;22.73;;;10.97;;
37451;SDS011;23314;51.114;6.900;2023-02-19T08:39:00;22.63;;;10.83;;
37451;SDS011;23314;51.114;6.900;2023-02-19T08:41:25;23.83;;;11.20;;
37451;SDS011;23314;51.114;6.900;2023-02-19T08:43:51;19.60;;;10.10;;
37451;SDS011;23314;51.114;6.900;2023-02-19T08:46:16;23.10;;;9.87;;
37451;SDS011;23314;51.114;6.900;2023-02-19T08:48:41;18.83;;;10.13;;
37451;SDS011;23314;51.114;6.900;2023-02-19T08:51:08;23.87;;;10.43;;
37451;SDS011;23314;51.114;6.900;2023-02-19T08:53:35;17.73;;;9.80;;
37451;SDS011;23314;51.114;6.900;2023-02-19T08:56:04;20.63;;;9.20;;
37451;SDS011;23314;51.114;6.900;2023-02-19T08:58:31;18.13;;;8.60;;
37451;SDS011;23314;51.114;6.900;2023-02-19T09:00:57;22.77;;;9.23;;
37451;SDS011;23314;51.114;6.900;2023-02-19T09:03:22;20.80;;;9.63;;
37451;SDS011;23314;51.114;6.900;2023-02-19T09:05:48;18.10;;;9.40;;
37451;SDS011;23314;51.114;6.900;2023-02-19T09:08:13;20.50;;;9.10;;
37451;SDS011;23314;51.114;6.900;2023-02-19T09:10:39;19.33;;;8.70;;
37451;SDS011;23314;51.114;6.900;2023-02-19T09:13:05;19.20;;;9.07;;
37451;SDS011;23314;51.114;6.900;2023-02-19T09:15:30;18.30;;;9.07;;
37451;SDS011;23314;51.114;6.900;2023-02-19T09:17:57;17.90;;;9.03;;
37451;SDS011;23314;51.114;6.900;2023-02-19T09:20:22;14.90;;;8.90;;
37451;SDS011;23314;51.114;6.900;2023-02-19T09:22:48;15.87;;;9.47;;
37451;SDS011;23314;51.114;6.900;2023-02-19T09:25:13;15.70;;;9.00;;
37451;SDS011;23314;51.114;6.900;2023-02-19T09:27:38;20.00;;;9.13;;
37451;SDS011;23314;51.114;6.900;2023-02-19T09:30:04;22.80;;;11.03;;
37451;SDS011;23314;51.114;6.900;2023-02-19T09:32:30;19.23;;;9.57;;
37451;SDS011;23314;51.114;6.900;2023-02-19T09:34:56;19.07;;;9.33;;
37451;SDS011;23314;51.114;6.900;2023-02-19T09:37:27;17.70;;;8.87;;
37451;SDS011;23314;51.114;6.900;2023-02-19T09:39:53;16.30;;;8.30;;
37451;SDS011;23314;51.114;6.900;2023-02-19T09:42:20;17.27;;;8.20;;
37451;SDS011;23314;51.114;6.900;2023-02-19T09:44:49;17.63;;;8.33;;
37451;SDS011;23314;51.114;6.900;2023-02-19T09:47:23;18.23;;;7.50;;
37451;SDS011;23314;51.114;6.900;2023-02-19T09:49:53;12.47;;;6.70;;
37451;SDS011;23314;51.114;6.900;2023-02-19T09:52:26;17.77;;;6.93;;
37451;SDS011;23314;51.114;6.900;2023-02-19T09:54:57;13.67;;;6.30;;
37451;SDS011;23314;51.114;6.900;2023-02-19T09:57:27;14.93;;;6.40;;
37451;SDS011;23314;51.114;6.900;2023-02-19T10:02:35;12.73;;;6.23;;
37451;SDS011;23314;51.114;6.900;2023-02-19T10:05:00;10.67;;;6.03;;
37451;SDS011;23314;51.114;6.900;2023-02-19T10:07:37;13.43;;;5.40;;
37451;SDS011;23314;51.114;6.900;2023-02-19T10:12:45;9.17;;;5.40;;
37451;SDS011;23314;51.114;6.900;2023-02-19T10:17:51;11.47;;;5.77;;
37451;SDS011;23314;51.114;6.900;2023-02-19T10:20:18;11.03;;;5.53;;
37451;SDS011;23314;51.114;6.900;2023-02-19T10:22:58;9.10;;;5.40;;
37451;SDS011;23314;51.114;6.900;2023-02-19T10:25:26;9.07;;;6.03;;
37451;SDS011;23314;51.114;6.900;2023-02-19T10:27:51;13.77;;;5.93;;
37451;SDS011;23314;51.114;6.900;2023-02-19T10:30:21;11.73;;;6.20;;
37451;SDS011;23314;51.114;6.900;2023-02-19T10:35:29;8.67;;;5.47;;
37451;SDS011;23314;51.114;6.900;2023-02-19T10:38:00;11.63;;;5.90;;
37451;SDS011;23314;51.114;6.900;2023-02-19T10:40:27;9.50;;;6.10;;
37451;SDS011;23314;51.114;6.900;2023-02-19T10:42:56;12.87;;;6.37;;
37451;SDS011;23314;51.114;6.900;2023-02-19T10:45:33;11.17;;;6.37;;
37451;SDS011;23314;51.114;6.900;2023-02-19T10:48:02;9.23;;;6.07;;
37451;SDS011;23314;51.114;6.900;2023-02-19T10:50:29;12.43;;;6.07;;
37451;SDS011;23314;51.114;6.900;2023-02-19T10:52:57;10.80;;;5.87;;
37451;SDS011;23314;51.114;6.900;2023-02-19T10:55:29;10.77;;;5.57;;
37451;SDS011;23314;51.114;6.900;2023-02-19T10:57:56;14.37;;;5.57;;
37451;SDS011;23314;51.114;6.900;2023-02-19T11:00:29;8.13;;;5.07;;
37451;SDS011;23314;51.114;6.900;2023-02-19T11:03:11;11.23;;;6.63;;
37451;SDS011;23314;51.114;6.900;2023-02-19T11:05:49;6.70;;;5.03;;
37451;SDS011;23314;51.114;6.900;2023-02-19T11:08:20;6.10;;;4.93;;
37451;SDS011;23314;51.114;6.900;2023-02-19T11:10:47;10.67;;;6.03;;
37451;SDS011;23314;51.114;6.900;2023-02-19T11:13:14;11.93;;;6.40;;
37451;SDS011;23314;51.114;6.900;2023-02-19T11:15:48;7.43;;;5.33;;
37451;SDS011;23314;51.114;6.900;2023-02-19T11:18:26;9.97;;;5.60;;
37451;SDS011;23314;51.114;6.900;2023-02-19T11:20:55;12.73;;;5.67;;
37451;SDS011;23314;51.114;6.900;2023-02-19T11:23:24;9.20;;;5.67;;
37451;SDS011;23314;51.114;6.900;2023-02-19T11:25:53;8.17;;;6.47;;
37451;SDS011;23314;51.114;6.900;2023-02-19T11:28:39;9.80;;;6.83;;
37451;SDS011;23314;51.114;6.900;2023-02-19T11:31:12;9.33;;;6.67;;
37451;SDS011;23314;51.114;6.900;2023-02-19T11:33:49;10.30;;;7.13;;
37451;SDS011;23314;51.114;6.900;2023-02-19T11:36:30;12.13;;;6.90;;
37451;SDS011;23314;51.114;6.900;2023-02-19T11:38:59;9.90;;;8.53;;
37451;SDS011;23314;51.114;6.900;2023-02-19T11:41:55;11.17;;;7.83;;
37451;SDS011;23314;51.114;6.900;2023-02-19T11:44:52;13.63;;;7.33;;
37451;SDS011;23314;51.114;6.900;2023-02-19T11:59:06;11.97;;;8.43;;
37451;SDS011;23314;51.114;6.900;2023-02-19T12:10:30;14.23;;;9.00;;
37451;SDS011;23314;51.114;6.900;2023-02-19T12:13:24;14.23;;;7.97;;
37451;SDS011;23314;51.114;6.900;2023-02-19T12:29:40;6.70;;;6.07;;
37451;SDS011;23314;51.114;6.900;2023-02-19T12:37:47;11.93;;;7.80;;
37451;SDS011;23314;51.114;6.900;2023-02-19T12:40:17;12.50;;;8.87;;
37451;SDS011;23314;51.114;6.900;2023-02-19T12:43:18;11.63;;;9.07;;
37451;SDS011;23314;51.114;6.900;2023-02-19T12:50:55;10.73;;;8.40;;
37451;SDS011;23314;51.114;6.900;2023-02-19T12:53:31;12.23;;;9.13;;
37451;SDS011;23314;51.114;6.900;2023-02-19T12:56:04;9.53;;;8.27;;
37451;SDS011;23314;51.114;6.900;2023-02-19T12:58:37;13.10;;;8.40;;
37451;SDS011;23314;51.114;6.900;2023-02-19T13:01:08;11.33;;;8.27;;
37451;SDS011;23314;51.114;6.900;2023-02-19T13:03:40;10.30;;;8.03;;
37451;SDS011;23314;51.114;6.900;2023-02-19T13:09:09;12.00;;;9.13;;
37451;SDS011;23314;51.114;6.900;2023-02-19T13:11:41;7.37;;;5.77;;
37451;SDS011;23314;51.114;6.900;2023-02-19T13:14:13;9.77;;;5.60;;
37451;SDS011;23314;51.114;6.900;2023-02-19T13:16:45;8.90;;;6.10;;
37451;SDS011;23314;51.114;6.900;2023-02-19T13:19:14;7.43;;;5.27;;
37451;SDS011;23314;51.114;6.900;2023-02-19T13:21:40;7.90;;;5.27;;
37451;SDS011;23314;51.114;6.900;2023-02-19T13:24:27;8.30;;;5.20;;
37451;SDS011;23314;51.114;6.900;2023-02-19T13:32:52;6.50;;;5.13;;
37451;SDS011;23314;51.114;6.900;2023-02-19T13:38:01;8.37;;;5.87;;
37451;SDS011;23314;51.114;6.900;2023-02-19T13:42:57;9.60;;;6.20;;
37451;SDS011;23314;51.114;6.900;2023-02-19T13:45:35;8.43;;;6.17;;
37451;SDS011;23314;51.114;6.900;2023-02-19T13:48:12;7.87;;;6.67;;
37451;SDS011;23314;51.114;6.900;2023-02-19T13:58:58;8.93;;;5.57;;
37451;SDS011;23314;51.114;6.900;2023-02-19T14:04:18;9.47;;;6.20;;
37451;SDS011;23314;51.114;6.900;2023-02-19T14:17:37;10.70;;;6.37;;
37451;SDS011;23314;51.114;6.900;2023-02-19T14:23:33;7.53;;;6.03;;
37451;SDS011;23314;51.114;6.900;2023-02-19T14:25:40;7.87;;;5.53;;
37451;SDS011;23314;51.114;6.900;2023-02-19T14:33:16;11.20;;;6.13;;
37451;SDS011;23314;51.114;6.900;2023-02-19T14:35:46;7.73;;;5.53;;
37451;SDS011;23314;51.114;6.900;2023-02-19T14:38:27;6.47;;;4.97;;
37451;SDS011;23314;51.114;6.900;2023-02-19T14:40:57;7.67;;;5.30;;
37451;SDS011;23314;51.114;6.900;2023-02-19T14:43:24;5.80;;;4.70;;
37451;SDS011;23314;51.114;6.900;2023-02-19T14:45:52;6.13;;;3.77;;
37451;SDS011;23314;51.114;6.900;2023-02-19T14:48:22;4.83;;;3.70;;
37451;SDS011;23314;51.114;6.900;2023-02-19T14:50:53;6.80;;;3.83;;
37451;SDS011;23314;51.114;6.900;2023-02-19T14:53:22;7.13;;;4.40;;
37451;SDS011;23314;51.114;6.900;2023-02-19T14:55:49;5.83;;;4.00;;
37451;SDS011;23314;51.114;6.900;2023-02-19T14:58:32;13.60;;;6.80;;
37451;SDS011;23314;51.114;6.900;2023-02-19T15:00:58;12.50;;;7.87;;
37451;SDS011;23314;51.114;6.900;2023-02-19T15:03:34;12.37;;;7.40;;
37451;SDS011;23314;51.114;6.900;2023-02-19T15:08:43;8.80;;;5.83;;
37451;SDS011;23314;51.114;6.900;2023-02-19T15:11:11;9.67;;;6.53;;
37451;SDS011;23314;51.114;6.900;2023-02-19T15:13:42;9.50;;;6.83;;
37451;SDS011;23314;51.114;6.900;2023-02-19T15:16:18;8.97;;;7.03;;
37451;SDS011;23314;51.114;6.900;2023-02-19T15:18:46;10.70;;;8.07;;
37451;SDS011;23314;51.114;6.900;2023-02-19T15:21:23;8.70;;;7.80;;
37451;SDS011;23314;51.114;6.900;2023-02-19T15:24:00;11.97;;;9.07;;
37451;SDS011;23314;51.114;6.900;2023-02-19T15:26:31;13.13;;;9.20;;
37451;SDS011;23314;51.114;6.900;2023-02-19T15:29:00;11.97;;;9.47;;
37451;SDS011;23314;51.114;6.900;2023-02-19T15:31:28;13.93;;;9.67;;
37451;SDS011;23314;51.114;6.900;2023-02-19T15:33:54;13.50;;;10.20;;
37451;SDS011;23314;51.114;6.900;2023-02-19T15:36:23;15.87;;;9.77;;
37451;SDS011;23314;51.114;6.900;2023-02-19T15:38:53;16.43;;;10.53;;
37451;SDS011;23314;51.114;6.900;2023-02-19T15:41:21;15.87;;;10.87;;
37451;SDS011;23314;51.114;6.900;2023-02-19T15:46:22;18.07;;;11.83;;
37451;SDS011;23314;51.114;6.900;2023-02-19T15:48:50;12.73;;;11.13;;
37451;SDS011;23314;51.114;6.900;2023-02-19T15:51:19;16.63;;;11.50;;
37451;SDS011;23314;51.114;6.900;2023-02-19T15:53:51;15.13;;;11.63;;
37451;SDS011;23314;51.114;6.900;2023-02-19T15:56:24;16.93;;;10.30;;
37451;SDS011;23314;51.114;6.900;2023-02-19T16:01:36;13.87;;;10.07;;
37451;SDS011;23314;51.114;6.900;2023-02-19T16:04:07;18.13;;;10.83;;
37451;SDS011;23314;51.114;6.900;2023-02-19T16:09:42;17.10;;;10.03;;
37451;SDS011;23314;51.114;6.900;2023-02-19T16:12:22;18.83;;;10.00;;
37451;SDS011;23314;51.114;6.900;2023-02-19T16:14:48;15.77;;;10.40;;
37451;SDS011;23314;51.114;6.900;2023-02-19T16:17:18;17.07;;;11.40;;
37451;SDS011;23314;51.114;6.900;2023-02-19T16:22:23;18.93;;;11.60;;
37451;SDS011;23314;51.114;6.900;2023-02-19T16:24:55;19.00;;;12.63;;
37451;SDS011;23314;51.114;6.900;2023-02-19T16:29:56;20.33;;;12.70;;
37451;SDS011;23314;51.114;6.900;2023-02-19T16:32:22;17.70;;;12.03;;
37451;SDS011;23314;51.114;6.900;2023-02-19T16:34:48;16.50;;;12.10;;
37451;SDS011;23314;51.114;6.900;2023-02-19T16:37:31;17.80;;;11.97;;
37451;SDS011;23314;51.114;6.900;2023-02-19T16:42:31;18.03;;;11.20;;
37451;SDS011;23314;51.114;6.900;2023-02-19T16:44:56;19.10;;;12.23;;
37451;SDS011;23314;51.114;6.900;2023-02-19T16:47:23;18.97;;;12.23;;
37451;SDS011;23314;51.114;6.900;2023-02-19T16:49:52;17.50;;;11.57;;
37451;SDS011;23314;51.114;6.900;2023-02-19T16:52:18;20.57;;;12.60;;
37451;SDS011;23314;51.114;6.900;2023-02-19T16:54:43;20.00;;;13.43;;
37451;SDS011;23314;51.114;6.900;2023-02-19T16:57:08;18.53;;;11.73;;
37451;SDS011;23314;51.114;6.900;2023-02-19T16:59:34;16.87;;;12.57;;
37451;SDS011;23314;51.114;6.900;2023-02-19T17:01:59;16.90;;;12.03;;
37451;SDS011;23314;51.114;6.900;2023-02-19T17:04:28;17.23;;;11.20;;
37451;SDS011;23314;51.114;6.900;2023-02-19T17:06:53;10.60;;;7.00;;
37451;SDS011;23314;51.114;6.900;2023-02-19T17:09:19;5.80;;;3.90;;
37451;SDS011;23314;51.114;6.900;2023-02-19T17:11:44;4.67;;;3.13;;
37451;SDS011;23314;51.114;6.900;2023-02-19T17:14:10;4.00;;;3.00;;